sensor_id;sensor_type;location;lat;lon;timestamp;P1;durP1;ratioP1;P2;durP2;ratioP2
53977;SDS011;39886;47.984;-1.586;2022-11-21T00:00:18;1.50;;;1.00;;
53977;SDS011;39886;47.984;-1.586;2022-11-21T00:02:44;1.23;;;1.00;;
53977;SDS011;39886;47.984;-1.586;2022-11-21T00:05:10;1.90;;;1.10;;
53977;SDS011;39886;47.984;-1.586;2022-11-21T00:07:35;1.33;;;0.85;;
53977;SDS011;39886;47.984;-1.586;2022-11-21T00:10:01;1.38;;;1.10;;
53977;SDS011;39886;47.984;-1.586;2022-11-21T00:12:27;1.20;;;0.90;;
53977;SDS011;39886;47.984;-1.586;2022-11-21T00:14:52;1.23;;;1.10;;
53977;SDS011;39886;47.984;-1.586;2022-11-21T00:17:18;0.90;;;0.90;;
53977;SDS011;39886;47.984;-1.586;2022-11-21T00:19:44;0.90;;;0.77;;
53977;SDS011;39886;47.984;-1.586;2022-11-21T00:22:10;1.05;;;1.00;;
53977;SDS011;39886;47.984;-1.586;2022-11-21T00:24:35;1.23;;;1.00;;
53977;SDS011;39886;47.984;-1.586;2022-11-21T00:27:01;2.63;;;1.30;;
53977;SDS011;39886;47.984;-1.586;2022-11-21T00:29:27;1.35;;;0.90;;
53977;SDS011;39886;47.984;-1.586;2022-11-21T00:31:53;1.70;;;1.10;;
53977;SDS011;39886;47.984;-1.586;2022-11-21T00:34:19;1.17;;;0.98;;
53977;SDS011;39886;47.984;-1.586;2022-11-21T00:36:45;1.58;;;0.90;;
53977;SDS011;39886;47.984;-1.586;2022-11-21T00:39:10;1.67;;;1.10;;
53977;SDS011;39886;47.984;-1.586;2022-11-21T00:41:36;2.05;;;1.25;;
53977;SDS011;39886;47.984;-1.586;2022-11-21T00:44:02;1.38;;;0.88;;
53977;SDS011;39886;47.984;-1.586;2022-11-21T00:46:28;1.20;;;0.90;;
53977;SDS011;39886;47.984;-1.586;2022-11-21T00:48:53;2.88;;;1.10;;
53977;SDS011;39886;47.984;-1.586;2022-11-21T00:51:19;2.35;;;1.10;;
53977;SDS011;39886;47.984;-1.586;2022-11-21T00:53:45;0.90;;;0.80;;
53977;SDS011;39886;47.984;-1.586;2022-11-21T00:56:11;2.25;;;1.00;;
53977;SDS011;39886;47.984;-1.586;2022-11-21T00:58:37;1.88;;;0.90;;
53977;SDS011;39886;47.984;-1.586;2022-11-21T01:01:07;1.73;;;1.00;;
53977;SDS011;39886;47.984;-1.586;2022-11-21T01:03:35;1.88;;;1.02;;
53977;SDS011;39886;47.984;-1.586;2022-11-21T01:06:08;2.03;;;1.48;;
53977;SDS011;39886;47.984;-1.586;2022-11-21T01:08:36;1.85;;;0.98;;
53977;SDS011;39886;47.984;-1.586;2022-11-21T01:11:07;1.73;;;1.00;;
53977;SDS011;39886;47.984;-1.586;2022-11-21T01:13:35;1.23;;;0.90;;
53977;SDS011;39886;47.984;-1.586;2022-11-21T01:16:02;1.27;;;1.10;;
53977;SDS011;39886;47.984;-1.586;2022-11-21T01:18:33;1.40;;;1.10;;
53977;SDS011;39886;47.984;-1.586;2022-11-21T01:21:00;1.98;;;1.02;;
53977;SDS011;39886;47.984;-1.586;2022-11-21T01:23:27;1.65;;;1.10;;
53977;SDS011;39886;47.984;-1.586;2022-11-21T01:25:53;1.20;;;1.10;;
53977;SDS011;39886;47.984;-1.586;2022-11-21T01:28:19;1.80;;;1.08;;
53977;SDS011;39886;47.984;-1.586;2022-11-21T01:30:45;2.45;;;1.05;;
53977;SDS011;39886;47.984;-1.586;2022-11-21T01:33:11;1.45;;;1.00;;
53977;SDS011;39886;47.984;-1.586;2022-11-21T01:35:36;1.63;;;1.00;;
53977;SDS011;39886;47.984;-1.586;2022-11-21T01:38:02;0.88;;;0.80;;
53977;SDS011;39886;47.984;-1.586;2022-11-21T01:40:28;1.92;;;1.15;;
53977;SDS011;39886;47.984;-1.586;2022-11-21T01:43:01;1.00;;;0.90;;
53977;SDS011;39886;47.984;-1.586;2022-11-21T01:48:27;1.98;;;1.00;;
53977;SDS011;39886;47.984;-1.586;2022-11-21T01:51:12;1.48;;;0.90;;
53977;SDS011;39886;47.984;-1.586;2022-11-21T01:53:45;1.63;;;0.98;;
53977;SDS011;39886;47.984;-1.586;2022-11-21T01:56:17;2.20;;;1.02;;
53977;SDS011;39886;47.984;-1.586;2022-11-21T01:58:44;1.27;;;0.90;;
53977;SDS011;39886;47.984;-1.586;2022-11-21T02:01:11;1.52;;;1.00;;
53977;SDS011;39886;47.984;-1.586;2022-11-21T02:03:37;2.60;;;1.33;;
53977;SDS011;39886;47.984;-1.586;2022-11-21T02:06:05;1.83;;;0.88;;
53977;SDS011;39886;47.984;-1.586;2022-11-21T02:08:32;1.00;;;0.88;;
53977;SDS011;39886;47.984;-1.586;2022-11-21T02:11:03;1.13;;;0.90;;
53977;SDS011;39886;47.984;-1.586;2022-11-21T02:13:33;1.60;;;0.98;;
53977;SDS011;39886;47.984;-1.586;2022-11-21T02:15:59;0.75;;;0.75;;
53977;SDS011;39886;47.984;-1.586;2022-11-21T02:18:25;1.10;;;1.00;;
53977;SDS011;39886;47.984;-1.586;2022-11-21T02:20:52;1.73;;;1.02;;
53977;SDS011;39886;47.984;-1.586;2022-11-21T02:25:50;1.45;;;0.93;;
53977;SDS011;39886;47.984;-1.586;2022-11-21T02:28:19;2.08;;;1.05;;
53977;SDS011;39886;47.984;-1.586;2022-11-21T02:30:47;2.03;;;1.00;;
53977;SDS011;39886;47.984;-1.586;2022-11-21T02:33:14;1.20;;;0.90;;
53977;SDS011;39886;47.984;-1.586;2022-11-21T02:35:40;0.73;;;0.70;;
53977;SDS011;39886;47.984;-1.586;2022-11-21T02:38:16;1.40;;;1.10;;
53977;SDS011;39886;47.984;-1.586;2022-11-21T02:40:50;0.98;;;0.88;;
53977;SDS011;39886;47.984;-1.586;2022-11-21T02:43:33;2.42;;;1.00;;
53977;SDS011;39886;47.984;-1.586;2022-11-21T02:46:03;1.92;;;1.00;;
53977;SDS011;39886;47.984;-1.586;2022-11-21T02:48:29;1.10;;;1.00;;
53977;SDS011;39886;47.984;-1.586;2022-11-21T02:50:55;2.00;;;1.10;;
53977;SDS011;39886;47.984;-1.586;2022-11-21T02:53:21;2.35;;;1.00;;
53977;SDS011;39886;47.984;-1.586;2022-11-21T02:55:46;2.00;;;1.00;;
53977;SDS011;39886;47.984;-1.586;2022-11-21T02:58:12;1.42;;;0.90;;
53977;SDS011;39886;47.984;-1.586;2022-11-21T03:00:39;1.20;;;1.00;;
53977;SDS011;39886;47.984;-1.586;2022-11-21T03:03:05;1.80;;;0.95;;
53977;SDS011;39886;47.984;-1.586;2022-11-21T03:05:31;1.27;;;1.00;;
53977;SDS011;39886;47.984;-1.586;2022-11-21T03:07:57;1.65;;;1.10;;
53977;SDS011;39886;47.984;-1.586;2022-11-21T03:10:23;1.98;;;1.15;;
53977;SDS011;39886;47.984;-1.586;2022-11-21T03:12:49;2.88;;;1.02;;
53977;SDS011;39886;47.984;-1.586;2022-11-21T03:15:14;1.27;;;1.00;;
53977;SDS011;39886;47.984;-1.586;2022-11-21T03:17:41;1.10;;;0.90;;
53977;SDS011;39886;47.984;-1.586;2022-11-21T03:20:07;2.33;;;1.10;;
53977;SDS011;39886;47.984;-1.586;2022-11-21T03:22:33;1.27;;;0.93;;
53977;SDS011;39886;47.984;-1.586;2022-11-21T03:24:59;1.30;;;1.00;;
53977;SDS011;39886;47.984;-1.586;2022-11-21T03:27:25;2.08;;;1.10;;
53977;SDS011;39886;47.984;-1.586;2022-11-21T03:29:51;1.40;;;0.93;;
53977;SDS011;39886;47.984;-1.586;2022-11-21T03:32:17;1.65;;;0.98;;
53977;SDS011;39886;47.984;-1.586;2022-11-21T03:34:43;1.77;;;0.90;;
53977;SDS011;39886;47.984;-1.586;2022-11-21T03:37:08;1.95;;;1.00;;
53977;SDS011;39886;47.984;-1.586;2022-11-21T03:39:34;2.75;;;1.20;;
53977;SDS011;39886;47.984;-1.586;2022-11-21T03:42:00;1.60;;;0.90;;
53977;SDS011;39886;47.984;-1.586;2022-11-21T03:44:25;1.85;;;1.10;;
53977;SDS011;39886;47.984;-1.586;2022-11-21T03:46:51;1.30;;;1.10;;
53977;SDS011;39886;47.984;-1.586;2022-11-21T03:49:17;1.90;;;1.20;;
53977;SDS011;39886;47.984;-1.586;2022-11-21T03:51:43;1.83;;;1.10;;
53977;SDS011;39886;47.984;-1.586;2022-11-21T03:54:09;2.60;;;1.20;;
53977;SDS011;39886;47.984;-1.586;2022-11-21T03:56:36;1.20;;;1.10;;
53977;SDS011;39886;47.984;-1.586;2022-11-21T03:59:03;1.58;;;1.00;;
53977;SDS011;39886;47.984;-1.586;2022-11-21T04:01:29;1.90;;;1.00;;
53977;SDS011;39886;47.984;-1.586;2022-11-21T04:03:55;1.95;;;1.02;;
53977;SDS011;39886;47.984;-1.586;2022-11-21T04:06:21;1.48;;;0.88;;
53977;SDS011;39886;47.984;-1.586;2022-11-21T04:08:47;2.63;;;1.13;;
53977;SDS011;39886;47.984;-1.586;2022-11-21T04:11:13;2.38;;;1.00;;
53977;SDS011;39886;47.984;-1.586;2022-11-21T04:13:39;3.45;;;1.10;;
53977;SDS011;39886;47.984;-1.586;2022-11-21T04:16:05;1.02;;;0.93;;
53977;SDS011;39886;47.984;-1.586;2022-11-21T04:18:32;1.88;;;1.25;;
53977;SDS011;39886;47.984;-1.586;2022-11-21T04:20:59;1.95;;;1.10;;
53977;SDS011;39886;47.984;-1.586;2022-11-21T04:23:27;2.28;;;1.13;;
53977;SDS011;39886;47.984;-1.586;2022-11-21T04:25:53;2.85;;;1.20;;
53977;SDS011;39886;47.984;-1.586;2022-11-21T04:28:19;1.15;;;1.02;;
53977;SDS011;39886;47.984;-1.586;2022-11-21T04:30:45;1.65;;;1.02;;
53977;SDS011;39886;47.984;-1.586;2022-11-21T04:33:12;1.10;;;1.00;;
53977;SDS011;39886;47.984;-1.586;2022-11-21T04:35:39;1.45;;;1.08;;
53977;SDS011;39886;47.984;-1.586;2022-11-21T04:38:07;2.78;;;1.33;;
53977;SDS011;39886;47.984;-1.586;2022-11-21T04:40:35;1.88;;;0.98;;
53977;SDS011;39886;47.984;-1.586;2022-11-21T04:43:02;1.73;;;0.90;;
53977;SDS011;39886;47.984;-1.586;2022-11-21T04:45:28;1.35;;;1.00;;
53977;SDS011;39886;47.984;-1.586;2022-11-21T04:47:54;0.82;;;0.80;;
53977;SDS011;39886;47.984;-1.586;2022-11-21T04:50:20;1.88;;;1.08;;
53977;SDS011;39886;47.984;-1.586;2022-11-21T04:52:49;2.30;;;1.10;;
53977;SDS011;39886;47.984;-1.586;2022-11-21T04:55:16;1.40;;;0.85;;
53977;SDS011;39886;47.984;-1.586;2022-11-21T04:57:42;2.55;;;1.02;;
53977;SDS011;39886;47.984;-1.586;2022-11-21T05:00:08;1.63;;;1.00;;
53977;SDS011;39886;47.984;-1.586;2022-11-21T05:02:34;3.22;;;1.40;;
53977;SDS011;39886;47.984;-1.586;2022-11-21T05:05:00;2.40;;;1.00;;
53977;SDS011;39886;47.984;-1.586;2022-11-21T05:07:26;1.52;;;1.10;;
53977;SDS011;39886;47.984;-1.586;2022-11-21T05:09:52;2.60;;;1.10;;
53977;SDS011;39886;47.984;-1.586;2022-11-21T05:12:17;2.10;;;1.15;;
53977;SDS011;39886;47.984;-1.586;2022-11-21T05:15:15;2.55;;;1.30;;
53977;SDS011;39886;47.984;-1.586;2022-11-21T05:17:41;2.03;;;1.05;;
53977;SDS011;39886;47.984;-1.586;2022-11-21T05:20:07;2.42;;;1.38;;
53977;SDS011;39886;47.984;-1.586;2022-11-21T05:22:33;1.13;;;0.90;;
53977;SDS011;39886;47.984;-1.586;2022-11-21T05:24:59;1.58;;;1.25;;
53977;SDS011;39886;47.984;-1.586;2022-11-21T05:27:25;2.47;;;1.20;;
53977;SDS011;39886;47.984;-1.586;2022-11-21T05:29:50;1.80;;;1.05;;
53977;SDS011;39886;47.984;-1.586;2022-11-21T05:32:17;2.78;;;1.42;;
53977;SDS011;39886;47.984;-1.586;2022-11-21T05:34:45;2.55;;;1.17;;
53977;SDS011;39886;47.984;-1.586;2022-11-21T05:37:10;4.47;;;1.35;;
53977;SDS011;39886;47.984;-1.586;2022-11-21T05:39:36;1.40;;;1.02;;
53977;SDS011;39886;47.984;-1.586;2022-11-21T05:42:02;3.00;;;1.40;;
53977;SDS011;39886;47.984;-1.586;2022-11-21T05:44:28;2.10;;;1.20;;
53977;SDS011;39886;47.984;-1.586;2022-11-21T05:46:53;2.00;;;1.17;;
53977;SDS011;39886;47.984;-1.586;2022-11-21T05:49:19;3.55;;;1.45;;
53977;SDS011;39886;47.984;-1.586;2022-11-21T05:51:45;2.58;;;1.10;;
53977;SDS011;39886;47.984;-1.586;2022-11-21T05:54:15;2.40;;;1.42;;
53977;SDS011;39886;47.984;-1.586;2022-11-21T05:56:41;3.38;;;1.30;;
53977;SDS011;39886;47.984;-1.586;2022-11-21T05:59:07;2.08;;;1.10;;
53977;SDS011;39886;47.984;-1.586;2022-11-21T06:01:34;2.72;;;1.25;;
53977;SDS011;39886;47.984;-1.586;2022-11-21T06:04:18;2.90;;;1.27;;
53977;SDS011;39886;47.984;-1.586;2022-11-21T06:06:44;2.45;;;1.20;;
53977;SDS011;39886;47.984;-1.586;2022-11-21T06:09:10;3.03;;;1.15;;
53977;SDS011;39886;47.984;-1.586;2022-11-21T06:11:36;3.45;;;1.20;;
53977;SDS011;39886;47.984;-1.586;2022-11-21T06:14:02;3.20;;;1.20;;
53977;SDS011;39886;47.984;-1.586;2022-11-21T06:16:28;1.98;;;1.20;;
53977;SDS011;39886;47.984;-1.586;2022-11-21T06:18:53;2.35;;;1.20;;
53977;SDS011;39886;47.984;-1.586;2022-11-21T06:21:20;2.72;;;1.20;;
53977;SDS011;39886;47.984;-1.586;2022-11-21T06:23:52;3.97;;;1.30;;
53977;SDS011;39886;47.984;-1.586;2022-11-21T06:26:19;1.98;;;1.10;;
53977;SDS011;39886;47.984;-1.586;2022-11-21T06:28:47;2.00;;;1.10;;
53977;SDS011;39886;47.984;-1.586;2022-11-21T06:31:17;2.25;;;1.13;;
53977;SDS011;39886;47.984;-1.586;2022-11-21T06:33:44;1.85;;;1.27;;
53977;SDS011;39886;47.984;-1.586;2022-11-21T06:36:14;3.58;;;1.15;;
53977;SDS011;39886;47.984;-1.586;2022-11-21T06:38:41;2.50;;;1.35;;
53977;SDS011;39886;47.984;-1.586;2022-11-21T06:41:11;1.73;;;1.17;;
53977;SDS011;39886;47.984;-1.586;2022-11-21T06:43:38;2.78;;;1.30;;
53977;SDS011;39886;47.984;-1.586;2022-11-21T06:46:05;1.17;;;1.08;;
53977;SDS011;39886;47.984;-1.586;2022-11-21T06:48:31;3.60;;;1.30;;
53977;SDS011;39886;47.984;-1.586;2022-11-21T06:51:02;2.38;;;1.10;;
53977;SDS011;39886;47.984;-1.586;2022-11-21T06:53:37;2.75;;;1.30;;
53977;SDS011;39886;47.984;-1.586;2022-11-21T06:56:03;2.13;;;1.02;;
53977;SDS011;39886;47.984;-1.586;2022-11-21T06:58:29;3.35;;;1.27;;
53977;SDS011;39886;47.984;-1.586;2022-11-21T07:00:56;1.77;;;1.00;;
53977;SDS011;39886;47.984;-1.586;2022-11-21T07:03:21;3.53;;;1.13;;
53977;SDS011;39886;47.984;-1.586;2022-11-21T07:05:47;1.67;;;1.00;;
53977;SDS011;39886;47.984;-1.586;2022-11-21T07:08:14;2.97;;;1.15;;
53977;SDS011;39886;47.984;-1.586;2022-11-21T07:10:40;2.28;;;1.30;;
53977;SDS011;39886;47.984;-1.586;2022-11-21T07:13:05;2.35;;;1.27;;
53977;SDS011;39886;47.984;-1.586;2022-11-21T07:15:47;3.05;;;1.40;;
53977;SDS011;39886;47.984;-1.586;2022-11-21T07:18:16;3.40;;;1.10;;
53977;SDS011;39886;47.984;-1.586;2022-11-21T07:20:42;3.83;;;1.25;;
53977;SDS011;39886;47.984;-1.586;2022-11-21T07:23:08;3.00;;;1.13;;
53977;SDS011;39886;47.984;-1.586;2022-11-21T07:25:34;1.75;;;1.20;;
53977;SDS011;39886;47.984;-1.586;2022-11-21T07:28:01;3.42;;;1.30;;
53977;SDS011;39886;47.984;-1.586;2022-11-21T07:30:27;2.65;;;1.45;;
53977;SDS011;39886;47.984;-1.586;2022-11-21T07:32:57;2.25;;;1.25;;
53977;SDS011;39886;47.984;-1.586;2022-11-21T07:35:23;9.68;;;1.50;;
53977;SDS011;39886;47.984;-1.586;2022-11-21T07:37:49;2.85;;;1.38;;
53977;SDS011;39886;47.984;-1.586;2022-11-21T07:40:15;3.80;;;1.50;;
53977;SDS011;39886;47.984;-1.586;2022-11-21T07:42:41;3.72;;;1.42;;
53977;SDS011;39886;47.984;-1.586;2022-11-21T07:45:08;2.65;;;1.23;;
53977;SDS011;39886;47.984;-1.586;2022-11-21T07:47:34;4.25;;;1.40;;
53977;SDS011;39886;47.984;-1.586;2022-11-21T07:49:59;5.82;;;1.80;;
53977;SDS011;39886;47.984;-1.586;2022-11-21T07:52:25;4.00;;;1.90;;
53977;SDS011;39886;47.984;-1.586;2022-11-21T07:54:54;4.57;;;1.13;;
53977;SDS011;39886;47.984;-1.586;2022-11-21T07:57:20;3.85;;;1.50;;
53977;SDS011;39886;47.984;-1.586;2022-11-21T07:59:46;4.22;;;1.55;;
53977;SDS011;39886;47.984;-1.586;2022-11-21T08:02:15;4.55;;;1.27;;
53977;SDS011;39886;47.984;-1.586;2022-11-21T08:04:46;4.05;;;1.77;;
53977;SDS011;39886;47.984;-1.586;2022-11-21T08:07:13;5.63;;;1.58;;
53977;SDS011;39886;47.984;-1.586;2022-11-21T08:09:39;6.78;;;1.15;;
53977;SDS011;39886;47.984;-1.586;2022-11-21T08:12:05;6.20;;;1.70;;
53977;SDS011;39886;47.984;-1.586;2022-11-21T08:14:34;5.00;;;1.40;;
53977;SDS011;39886;47.984;-1.586;2022-11-21T08:17:00;3.53;;;1.38;;
53977;SDS011;39886;47.984;-1.586;2022-11-21T08:19:26;4.85;;;1.30;;
53977;SDS011;39886;47.984;-1.586;2022-11-21T08:21:52;4.13;;;1.63;;
53977;SDS011;39886;47.984;-1.586;2022-11-21T08:24:18;4.07;;;1.50;;
53977;SDS011;39886;47.984;-1.586;2022-11-21T08:26:44;3.65;;;1.60;;
53977;SDS011;39886;47.984;-1.586;2022-11-21T08:29:10;7.07;;;1.38;;
53977;SDS011;39886;47.984;-1.586;2022-11-21T08:31:39;4.30;;;1.50;;
53977;SDS011;39886;47.984;-1.586;2022-11-21T08:34:05;4.18;;;1.60;;
53977;SDS011;39886;47.984;-1.586;2022-11-21T08:36:31;4.03;;;1.55;;
53977;SDS011;39886;47.984;-1.586;2022-11-21T08:38:56;4.40;;;1.73;;
53977;SDS011;39886;47.984;-1.586;2022-11-21T08:41:22;6.03;;;1.52;;
53977;SDS011;39886;47.984;-1.586;2022-11-21T08:44:07;4.95;;;1.40;;
53977;SDS011;39886;47.984;-1.586;2022-11-21T08:46:36;4.72;;;1.60;;
53977;SDS011;39886;47.984;-1.586;2022-11-21T08:49:05;3.78;;;1.60;;
53977;SDS011;39886;47.984;-1.586;2022-11-21T08:51:32;4.18;;;1.25;;
53977;SDS011;39886;47.984;-1.586;2022-11-21T08:53:58;5.47;;;1.48;;
53977;SDS011;39886;47.984;-1.586;2022-11-21T08:56:24;4.47;;;1.70;;
53977;SDS011;39886;47.984;-1.586;2022-11-21T08:58:50;6.22;;;1.80;;
53977;SDS011;39886;47.984;-1.586;2022-11-21T09:01:15;5.30;;;1.58;;
53977;SDS011;39886;47.984;-1.586;2022-11-21T09:03:42;3.47;;;1.48;;
53977;SDS011;39886;47.984;-1.586;2022-11-21T09:06:07;8.30;;;1.70;;
53977;SDS011;39886;47.984;-1.586;2022-11-21T09:08:34;5.45;;;1.60;;
53977;SDS011;39886;47.984;-1.586;2022-11-21T09:11:03;5.88;;;2.08;;
53977;SDS011;39886;47.984;-1.586;2022-11-21T09:13:30;3.08;;;1.48;;
53977;SDS011;39886;47.984;-1.586;2022-11-21T09:15:56;5.32;;;1.40;;
53977;SDS011;39886;47.984;-1.586;2022-11-21T09:18:42;5.95;;;1.58;;
53977;SDS011;39886;47.984;-1.586;2022-11-21T09:21:08;5.93;;;1.55;;
53977;SDS011;39886;47.984;-1.586;2022-11-21T09:23:37;5.72;;;1.80;;
53977;SDS011;39886;47.984;-1.586;2022-11-21T09:26:03;6.38;;;1.58;;
53977;SDS011;39886;47.984;-1.586;2022-11-21T09:28:29;3.67;;;1.65;;
53977;SDS011;39886;47.984;-1.586;2022-11-21T09:30:54;3.78;;;1.63;;
53977;SDS011;39886;47.984;-1.586;2022-11-21T09:33:20;6.50;;;1.70;;
53977;SDS011;39886;47.984;-1.586;2022-11-21T09:35:46;5.30;;;1.70;;
53977;SDS011;39886;47.984;-1.586;2022-11-21T09:38:12;3.60;;;1.55;;
53977;SDS011;39886;47.984;-1.586;2022-11-21T09:40:39;4.88;;;1.50;;
53977;SDS011;39886;47.984;-1.586;2022-11-21T09:43:17;7.53;;;2.15;;
53977;SDS011;39886;47.984;-1.586;2022-11-21T09:45:49;2.95;;;1.50;;
53977;SDS011;39886;47.984;-1.586;2022-11-21T09:48:18;6.15;;;1.58;;
53977;SDS011;39886;47.984;-1.586;2022-11-21T09:53:19;3.97;;;1.40;;
53977;SDS011;39886;47.984;-1.586;2022-11-21T09:55:57;4.25;;;1.73;;
53977;SDS011;39886;47.984;-1.586;2022-11-21T09:58:40;2.90;;;1.60;;
53977;SDS011;39886;47.984;-1.586;2022-11-21T10:01:13;6.88;;;1.73;;
53977;SDS011;39886;47.984;-1.586;2022-11-21T10:03:41;3.50;;;1.65;;
53977;SDS011;39886;47.984;-1.586;2022-11-21T10:14:51;5.53;;;1.90;;
53977;SDS011;39886;47.984;-1.586;2022-11-21T10:26:21;4.72;;;1.67;;
53977;SDS011;39886;47.984;-1.586;2022-11-21T10:29:15;5.18;;;1.92;;
53977;SDS011;39886;47.984;-1.586;2022-11-21T10:31:42;4.82;;;1.92;;
53977;SDS011;39886;47.984;-1.586;2022-11-21T10:34:10;3.38;;;1.67;;
53977;SDS011;39886;47.984;-1.586;2022-11-21T10:36:46;5.47;;;1.75;;
53977;SDS011;39886;47.984;-1.586;2022-11-21T10:42:08;4.65;;;1.80;;
53977;SDS011;39886;47.984;-1.586;2022-11-21T10:44:55;4.68;;;1.80;;
53977;SDS011;39886;47.984;-1.586;2022-11-21T10:47:47;4.68;;;2.00;;
53977;SDS011;39886;47.984;-1.586;2022-11-21T10:53:25;6.50;;;1.60;;
53977;SDS011;39886;47.984;-1.586;2022-11-21T10:59:01;5.00;;;1.88;;
53977;SDS011;39886;47.984;-1.586;2022-11-21T11:01:43;5.63;;;1.75;;
53977;SDS011;39886;47.984;-1.586;2022-11-21T11:04:22;3.35;;;1.52;;
53977;SDS011;39886;47.984;-1.586;2022-11-21T11:06:50;4.63;;;1.90;;
53977;SDS011;39886;47.984;-1.586;2022-11-21T11:09:26;2.60;;;1.60;;
53977;SDS011;39886;47.984;-1.586;2022-11-21T11:15:21;2.25;;;1.58;;
53977;SDS011;39886;47.984;-1.586;2022-11-21T11:17:56;4.55;;;1.42;;
53977;SDS011;39886;47.984;-1.586;2022-11-21T11:20:36;3.25;;;1.52;;
53977;SDS011;39886;47.984;-1.586;2022-11-21T11:25:48;6.47;;;1.95;;
53977;SDS011;39886;47.984;-1.586;2022-11-21T11:28:17;2.97;;;1.65;;
53977;SDS011;39886;47.984;-1.586;2022-11-21T11:30:44;4.15;;;1.70;;
53977;SDS011;39886;47.984;-1.586;2022-11-21T11:33:28;4.60;;;1.70;;
53977;SDS011;39886;47.984;-1.586;2022-11-21T11:38:30;4.57;;;1.50;;
53977;SDS011;39886;47.984;-1.586;2022-11-21T11:40:58;3.30;;;1.58;;
53977;SDS011;39886;47.984;-1.586;2022-11-21T11:43:38;2.40;;;1.42;;
53977;SDS011;39886;47.984;-1.586;2022-11-21T11:46:40;6.00;;;1.60;;
53977;SDS011;39886;47.984;-1.586;2022-11-21T11:53:21;5.15;;;1.60;;
53977;SDS011;39886;47.984;-1.586;2022-11-21T11:55:41;3.28;;;1.65;;
53977;SDS011;39886;47.984;-1.586;2022-11-21T11:58:19;3.05;;;1.50;;
53977;SDS011;39886;47.984;-1.586;2022-11-21T12:03:35;6.03;;;1.67;;
53977;SDS011;39886;47.984;-1.586;2022-11-21T12:06:40;3.88;;;1.50;;
53977;SDS011;39886;47.984;-1.586;2022-11-21T12:08:59;3.40;;;1.48;;
53977;SDS011;39886;47.984;-1.586;2022-11-21T12:11:52;3.40;;;1.35;;
53977;SDS011;39886;47.984;-1.586;2022-11-21T12:23:26;4.63;;;1.67;;
53977;SDS011;39886;47.984;-1.586;2022-11-21T12:42:17;3.55;;;1.27;;
53977;SDS011;39886;47.984;-1.586;2022-11-21T12:54:21;5.38;;;2.00;;
53977;SDS011;39886;47.984;-1.586;2022-11-21T12:57:08;3.65;;;1.92;;
53977;SDS011;39886;47.984;-1.586;2022-11-21T12:59:54;5.03;;;1.60;;
53977;SDS011;39886;47.984;-1.586;2022-11-21T13:05:11;5.90;;;1.70;;
53977;SDS011;39886;47.984;-1.586;2022-11-21T13:07:42;5.75;;;1.65;;
53977;SDS011;39886;47.984;-1.586;2022-11-21T13:10:13;3.90;;;1.38;;
53977;SDS011;39886;47.984;-1.586;2022-11-21T13:12:43;4.65;;;1.80;;
53977;SDS011;39886;47.984;-1.586;2022-11-21T13:17:55;9.05;;;1.92;;
53977;SDS011;39886;47.984;-1.586;2022-11-21T13:20:44;4.22;;;1.42;;
53977;SDS011;39886;47.984;-1.586;2022-11-21T13:26:49;3.53;;;1.60;;
53977;SDS011;39886;47.984;-1.586;2022-11-21T13:29:06;3.95;;;1.65;;
53977;SDS011;39886;47.984;-1.586;2022-11-21T13:31:33;4.70;;;1.77;;
53977;SDS011;39886;47.984;-1.586;2022-11-21T13:33:59;6.93;;;1.77;;
53977;SDS011;39886;47.984;-1.586;2022-11-21T13:49:53;5.45;;;1.73;;
53977;SDS011;39886;47.984;-1.586;2022-11-21T14:10:42;4.60;;;1.70;;
53977;SDS011;39886;47.984;-1.586;2022-11-21T14:13:19;5.50;;;1.90;;
53977;SDS011;39886;47.984;-1.586;2022-11-21T14:15:58;2.83;;;1.20;;
53977;SDS011;39886;47.984;-1.586;2022-11-21T14:18:37;6.78;;;1.75;;
53977;SDS011;39886;47.984;-1.586;2022-11-21T14:21:14;4.45;;;1.70;;
53977;SDS011;39886;47.984;-1.586;2022-11-21T14:23:51;4.03;;;1.48;;
53977;SDS011;39886;47.984;-1.586;2022-11-21T14:26:21;6.07;;;1.90;;
53977;SDS011;39886;47.984;-1.586;2022-11-21T14:28:49;5.70;;;1.67;;
53977;SDS011;39886;47.984;-1.586;2022-11-21T14:31:15;4.43;;;1.73;;
53977;SDS011;39886;47.984;-1.586;2022-11-21T14:33:41;3.03;;;1.17;;
53977;SDS011;39886;47.984;-1.586;2022-11-21T14:36:15;6.57;;;1.88;;
53977;SDS011;39886;47.984;-1.586;2022-11-21T14:38:47;6.63;;;2.00;;
53977;SDS011;39886;47.984;-1.586;2022-11-21T14:43:59;3.58;;;1.50;;
53977;SDS011;39886;47.984;-1.586;2022-11-21T14:46:27;3.95;;;1.63;;
53977;SDS011;39886;47.984;-1.586;2022-11-21T14:48:55;3.83;;;1.50;;
53977;SDS011;39886;47.984;-1.586;2022-11-21T14:51:24;3.28;;;1.42;;
53977;SDS011;39886;47.984;-1.586;2022-11-21T14:56:20;5.40;;;1.30;;
53977;SDS011;39886;47.984;-1.586;2022-11-21T14:58:51;3.92;;;1.27;;
53977;SDS011;39886;47.984;-1.586;2022-11-21T15:01:20;3.67;;;1.45;;
53977;SDS011;39886;47.984;-1.586;2022-11-21T15:04:00;5.65;;;1.50;;
53977;SDS011;39886;47.984;-1.586;2022-11-21T15:06:28;3.65;;;1.20;;
53977;SDS011;39886;47.984;-1.586;2022-11-21T15:08:57;3.58;;;1.40;;
53977;SDS011;39886;47.984;-1.586;2022-11-21T15:11:42;3.25;;;1.20;;
53977;SDS011;39886;47.984;-1.586;2022-11-21T15:16:50;2.65;;;1.23;;
53977;SDS011;39886;47.984;-1.586;2022-11-21T15:19:24;3.85;;;1.30;;
53977;SDS011;39886;47.984;-1.586;2022-11-21T15:21:53;3.85;;;1.33;;
53977;SDS011;39886;47.984;-1.586;2022-11-21T15:24:39;4.43;;;1.45;;
53977;SDS011;39886;47.984;-1.586;2022-11-21T15:43:47;8.15;;;1.92;;
53977;SDS011;39886;47.984;-1.586;2022-11-21T15:46:38;4.40;;;1.15;;
53977;SDS011;39886;47.984;-1.586;2022-11-21T15:49:13;4.18;;;1.25;;
53977;SDS011;39886;47.984;-1.586;2022-11-21T15:51:40;6.00;;;1.48;;
53977;SDS011;39886;47.984;-1.586;2022-11-21T15:54:08;6.25;;;1.50;;
53977;SDS011;39886;47.984;-1.586;2022-11-21T15:56:36;3.55;;;1.23;;
53977;SDS011;39886;47.984;-1.586;2022-11-21T15:59:02;3.88;;;1.20;;
53977;SDS011;39886;47.984;-1.586;2022-11-21T16:01:28;3.65;;;1.42;;
53977;SDS011;39886;47.984;-1.586;2022-11-21T16:03:55;2.63;;;1.45;;
53977;SDS011;39886;47.984;-1.586;2022-11-21T16:06:22;2.50;;;1.20;;
53977;SDS011;39886;47.984;-1.586;2022-11-21T16:08:48;4.13;;;1.48;;
53977;SDS011;39886;47.984;-1.586;2022-11-21T16:11:20;5.13;;;1.35;;
53977;SDS011;39886;47.984;-1.586;2022-11-21T16:13:47;4.23;;;1.50;;
53977;SDS011;39886;47.984;-1.586;2022-11-21T16:16:16;6.20;;;1.50;;
53977;SDS011;39886;47.984;-1.586;2022-11-21T16:18:42;2.78;;;0.93;;
53977;SDS011;39886;47.984;-1.586;2022-11-21T16:21:08;5.13;;;1.13;;
53977;SDS011;39886;47.984;-1.586;2022-11-21T16:23:35;3.35;;;1.58;;
53977;SDS011;39886;47.984;-1.586;2022-11-21T16:26:02;5.93;;;1.40;;
53977;SDS011;39886;47.984;-1.586;2022-11-21T16:28:29;3.13;;;1.05;;
53977;SDS011;39886;47.984;-1.586;2022-11-21T16:30:56;2.97;;;1.15;;
53977;SDS011;39886;47.984;-1.586;2022-11-21T16:33:22;5.45;;;1.60;;
53977;SDS011;39886;47.984;-1.586;2022-11-21T16:35:49;3.10;;;1.30;;
53977;SDS011;39886;47.984;-1.586;2022-11-21T16:38:19;2.30;;;1.50;;
53977;SDS011;39886;47.984;-1.586;2022-11-21T16:40:55;3.17;;;1.40;;
53977;SDS011;39886;47.984;-1.586;2022-11-21T16:43:25;3.85;;;1.25;;
53977;SDS011;39886;47.984;-1.586;2022-11-21T16:45:52;4.22;;;1.13;;
53977;SDS011;39886;47.984;-1.586;2022-11-21T16:48:19;3.72;;;1.10;;
53977;SDS011;39886;47.984;-1.586;2022-11-21T16:50:46;3.15;;;1.30;;
53977;SDS011;39886;47.984;-1.586;2022-11-21T16:53:12;5.80;;;1.48;;
53977;SDS011;39886;47.984;-1.586;2022-11-21T16:55:39;3.03;;;1.42;;
53977;SDS011;39886;47.984;-1.586;2022-11-21T16:58:04;3.80;;;1.42;;
53977;SDS011;39886;47.984;-1.586;2022-11-21T17:00:30;3.25;;;1.40;;
53977;SDS011;39886;47.984;-1.586;2022-11-21T17:02:56;3.13;;;1.17;;
53977;SDS011;39886;47.984;-1.586;2022-11-21T17:05:22;2.95;;;1.40;;
53977;SDS011;39886;47.984;-1.586;2022-11-21T17:07:49;3.40;;;1.10;;
53977;SDS011;39886;47.984;-1.586;2022-11-21T17:10:14;3.13;;;1.20;;
53977;SDS011;39886;47.984;-1.586;2022-11-21T17:12:41;4.35;;;1.50;;